sensor_id;sensor_type;location;lat;lon;timestamp;P1;durP1;ratioP1;P2;durP2;ratioP2
75971;SDS011;64651;47.540;19.088;2023-07-08T00:03:29;10.52;;;5.53;;
75971;SDS011;64651;47.540;19.088;2023-07-08T00:08:31;8.73;;;5.03;;
75971;SDS011;64651;47.540;19.088;2023-07-08T00:13:34;10.00;;;5.28;;
75971;SDS011;64651;47.540;19.088;2023-07-08T00:18:36;8.73;;;4.90;;
75971;SDS011;64651;47.540;19.088;2023-07-08T00:23:39;10.52;;;4.85;;
75971;SDS011;64651;47.540;19.088;2023-07-08T00:28:41;10.20;;;4.90;;
75971;SDS011;64651;47.540;19.088;2023-07-08T00:33:43;9.87;;;4.50;;
75971;SDS011;64651;47.540;19.088;2023-07-08T00:38:45;10.85;;;5.15;;
75971;SDS011;64651;47.540;19.088;2023-07-08T00:43:51;9.48;;;4.70;;
75971;SDS011;64651;47.540;19.088;2023-07-08T00:54:12;10.80;;;5.05;;
75971;SDS011;64651;47.540;19.088;2023-07-08T00:59:52;11.67;;;4.87;;
75971;SDS011;64651;47.540;19.088;2023-07-08T01:04:52;11.88;;;4.93;;
75971;SDS011;64651;47.540;19.088;2023-07-08T01:10:04;9.65;;;5.25;;
75971;SDS011;64651;47.540;19.088;2023-07-08T01:15:14;10.07;;;5.65;;
75971;SDS011;64651;47.540;19.088;2023-07-08T01:20:17;9.45;;;4.87;;
75971;SDS011;64651;47.540;19.088;2023-07-08T01:25:19;9.27;;;5.20;;
75971;SDS011;64651;47.540;19.088;2023-07-08T01:30:23;10.23;;;5.50;;
75971;SDS011;64651;47.540;19.088;2023-07-08T01:35:27;10.98;;;4.95;;
75971;SDS011;64651;47.540;19.088;2023-07-08T01:45:36;12.77;;;5.25;;
75971;SDS011;64651;47.540;19.088;2023-07-08T01:56:16;11.80;;;5.37;;
75971;SDS011;64651;47.540;19.088;2023-07-08T02:01:19;9.90;;;5.70;;
75971;SDS011;64651;47.540;19.088;2023-07-08T02:06:21;11.45;;;5.60;;
75971;SDS011;64651;47.540;19.088;2023-07-08T02:11:23;9.27;;;5.12;;
75971;SDS011;64651;47.540;19.088;2023-07-08T02:16:25;10.03;;;5.10;;
75971;SDS011;64651;47.540;19.088;2023-07-08T02:21:28;10.15;;;4.93;;
75971;SDS011;64651;47.540;19.088;2023-07-08T02:26:32;11.70;;;5.50;;
75971;SDS011;64651;47.540;19.088;2023-07-08T02:31:35;10.45;;;5.30;;
75971;SDS011;64651;47.540;19.088;2023-07-08T02:36:37;10.98;;;5.32;;
75971;SDS011;64651;47.540;19.088;2023-07-08T02:41:40;9.23;;;5.03;;
75971;SDS011;64651;47.540;19.088;2023-07-08T02:46:43;11.45;;;5.15;;
75971;SDS011;64651;47.540;19.088;2023-07-08T02:51:45;10.90;;;5.30;;
75971;SDS011;64651;47.540;19.088;2023-07-08T02:56:47;12.77;;;5.10;;
75971;SDS011;64651;47.540;19.088;2023-07-08T03:01:50;10.30;;;5.10;;
75971;SDS011;64651;47.540;19.088;2023-07-08T03:06:52;12.67;;;5.50;;
75971;SDS011;64651;47.540;19.088;2023-07-08T03:11:55;9.50;;;4.87;;
75971;SDS011;64651;47.540;19.088;2023-07-08T03:16:58;11.02;;;5.07;;
75971;SDS011;64651;47.540;19.088;2023-07-08T03:22:00;10.07;;;4.87;;
75971;SDS011;64651;47.540;19.088;2023-07-08T03:27:07;12.40;;;5.25;;
75971;SDS011;64651;47.540;19.088;2023-07-08T03:32:10;10.00;;;4.50;;
75971;SDS011;64651;47.540;19.088;2023-07-08T03:37:13;10.02;;;4.95;;
75971;SDS011;64651;47.540;19.088;2023-07-08T03:42:16;9.95;;;4.40;;
75971;SDS011;64651;47.540;19.088;2023-07-08T03:47:18;11.60;;;4.85;;
75971;SDS011;64651;47.540;19.088;2023-07-08T03:52:20;10.65;;;4.30;;
75971;SDS011;64651;47.540;19.088;2023-07-08T03:57:23;9.60;;;4.90;;
75971;SDS011;64651;47.540;19.088;2023-07-08T04:02:25;9.60;;;5.00;;
75971;SDS011;64651;47.540;19.088;2023-07-08T04:07:27;9.05;;;4.72;;
75971;SDS011;64651;47.540;19.088;2023-07-08T04:12:29;9.90;;;4.68;;
75971;SDS011;64651;47.540;19.088;2023-07-08T04:17:32;10.80;;;4.53;;
75971;SDS011;64651;47.540;19.088;2023-07-08T04:22:34;9.37;;;4.17;;
75971;SDS011;64651;47.540;19.088;2023-07-08T04:27:37;10.35;;;5.05;;
75971;SDS011;64651;47.540;19.088;2023-07-08T04:32:39;8.85;;;4.82;;
75971;SDS011;64651;47.540;19.088;2023-07-08T04:37:45;9.68;;;4.82;;
75971;SDS011;64651;47.540;19.088;2023-07-08T04:42:49;10.38;;;4.95;;
75971;SDS011;64651;47.540;19.088;2023-07-08T04:47:54;9.27;;;4.70;;
75971;SDS011;64651;47.540;19.088;2023-07-08T04:52:56;10.30;;;5.28;;
75971;SDS011;64651;47.540;19.088;2023-07-08T04:57:58;10.15;;;5.18;;
75971;SDS011;64651;47.540;19.088;2023-07-08T05:03:01;10.50;;;5.50;;
75971;SDS011;64651;47.540;19.088;2023-07-08T05:08:03;9.80;;;5.05;;
75971;SDS011;64651;47.540;19.088;2023-07-08T05:13:06;11.23;;;4.73;;
75971;SDS011;64651;47.540;19.088;2023-07-08T05:18:08;11.23;;;5.00;;
75971;SDS011;64651;47.540;19.088;2023-07-08T05:23:10;10.13;;;4.45;;
75971;SDS011;64651;47.540;19.088;2023-07-08T05:28:13;10.60;;;4.80;;
75971;SDS011;64651;47.540;19.088;2023-07-08T05:33:15;9.77;;;4.80;;
75971;SDS011;64651;47.540;19.088;2023-07-08T05:38:17;11.57;;;4.93;;
75971;SDS011;64651;47.540;19.088;2023-07-08T05:43:20;9.55;;;4.82;;
75971;SDS011;64651;47.540;19.088;2023-07-08T05:48:23;9.13;;;4.70;;
75971;SDS011;64651;47.540;19.088;2023-07-08T05:53:25;10.38;;;5.10;;
75971;SDS011;64651;47.540;19.088;2023-07-08T05:58:27;11.00;;;4.55;;
75971;SDS011;64651;47.540;19.088;2023-07-08T06:03:30;9.57;;;5.20;;
75971;SDS011;64651;47.540;19.088;2023-07-08T06:08:32;9.05;;;4.87;;
75971;SDS011;64651;47.540;19.088;2023-07-08T06:13:35;9.50;;;4.85;;
75971;SDS011;64651;47.540;19.088;2023-07-08T06:18:37;8.95;;;5.15;;
75971;SDS011;64651;47.540;19.088;2023-07-08T06:23:39;9.13;;;4.35;;
75971;SDS011;64651;47.540;19.088;2023-07-08T06:28:42;8.97;;;4.97;;
75971;SDS011;64651;47.540;19.088;2023-07-08T06:33:44;11.57;;;5.10;;
75971;SDS011;64651;47.540;19.088;2023-07-08T06:38:46;10.40;;;5.35;;
75971;SDS011;64651;47.540;19.088;2023-07-08T06:43:49;9.80;;;4.90;;
75971;SDS011;64651;47.540;19.088;2023-07-08T06:48:51;10.20;;;4.93;;
75971;SDS011;64651;47.540;19.088;2023-07-08T06:53:55;10.40;;;5.20;;
75971;SDS011;64651;47.540;19.088;2023-07-08T06:58:57;10.07;;;4.80;;
75971;SDS011;64651;47.540;19.088;2023-07-08T07:04:00;9.00;;;4.53;;
75971;SDS011;64651;47.540;19.088;2023-07-08T07:09:03;10.63;;;4.60;;
75971;SDS011;64651;47.540;19.088;2023-07-08T07:14:05;9.55;;;5.37;;
75971;SDS011;64651;47.540;19.088;2023-07-08T07:19:28;8.30;;;4.77;;
75971;SDS011;64651;47.540;19.088;2023-07-08T07:24:30;8.23;;;4.53;;
75971;SDS011;64651;47.540;19.088;2023-07-08T07:29:42;8.98;;;5.00;;
75971;SDS011;64651;47.540;19.088;2023-07-08T07:34:47;9.63;;;4.87;;
75971;SDS011;64651;47.540;19.088;2023-07-08T07:39:50;9.57;;;4.47;;
75971;SDS011;64651;47.540;19.088;2023-07-08T07:44:52;9.87;;;4.43;;
75971;SDS011;64651;47.540;19.088;2023-07-08T07:49:55;9.52;;;5.00;;
75971;SDS011;64651;47.540;19.088;2023-07-08T07:54:57;9.75;;;4.65;;
75971;SDS011;64651;47.540;19.088;2023-07-08T07:59:59;8.73;;;4.62;;
75971;SDS011;64651;47.540;19.088;2023-07-08T08:05:02;9.00;;;4.72;;
75971;SDS011;64651;47.540;19.088;2023-07-08T08:10:04;8.80;;;4.97;;
75971;SDS011;64651;47.540;19.088;2023-07-08T08:15:07;9.95;;;5.45;;
75971;SDS011;64651;47.540;19.088;2023-07-08T08:20:10;10.52;;;5.80;;
75971;SDS011;64651;47.540;19.088;2023-07-08T08:25:13;8.57;;;6.43;;
75971;SDS011;64651;47.540;19.088;2023-07-08T08:30:17;11.15;;;8.25;;
75971;SDS011;64651;47.540;19.088;2023-07-08T08:35:19;9.80;;;7.97;;
75971;SDS011;64651;47.540;19.088;2023-07-08T08:40:22;8.70;;;7.45;;
75971;SDS011;64651;47.540;19.088;2023-07-08T08:45:24;10.60;;;8.25;;
75971;SDS011;64651;47.540;19.088;2023-07-08T08:55:51;10.20;;;8.70;;
75971;SDS011;64651;47.540;19.088;2023-07-08T09:01:12;12.10;;;10.40;;
75971;SDS011;64651;47.540;19.088;2023-07-08T09:06:21;14.73;;;13.43;;
75971;SDS011;64651;47.540;19.088;2023-07-08T09:12:03;14.57;;;13.13;;
75971;SDS011;64651;47.540;19.088;2023-07-08T09:17:14;13.90;;;12.60;;
75971;SDS011;64651;47.540;19.088;2023-07-08T09:22:37;12.93;;;11.80;;
75971;SDS011;64651;47.540;19.088;2023-07-08T09:27:45;12.40;;;11.10;;
75971;SDS011;64651;47.540;19.088;2023-07-08T09:32:48;11.95;;;9.15;;
75971;SDS011;64651;47.540;19.088;2023-07-08T09:37:51;11.10;;;10.00;;
75971;SDS011;64651;47.540;19.088;2023-07-08T09:42:56;11.15;;;10.00;;
75971;SDS011;64651;47.540;19.088;2023-07-08T09:48:03;10.57;;;8.82;;
75971;SDS011;64651;47.540;19.088;2023-07-08T09:53:11;12.90;;;8.83;;
75971;SDS011;64651;47.540;19.088;2023-07-08T09:58:23;9.70;;;8.57;;
75971;SDS011;64651;47.540;19.088;2023-07-08T10:03:26;10.18;;;7.12;;
75971;SDS011;64651;47.540;19.088;2023-07-08T10:08:40;9.45;;;6.72;;
75971;SDS011;64651;47.540;19.088;2023-07-08T10:13:45;9.68;;;6.75;;
75971;SDS011;64651;47.540;19.088;2023-07-08T10:19:13;10.63;;;7.43;;
75971;SDS011;64651;47.540;19.088;2023-07-08T10:56:28;18.00;;;16.65;;
75971;SDS011;64651;47.540;19.088;2023-07-08T11:07:00;15.88;;;14.55;;
75971;SDS011;64651;47.540;19.088;2023-07-08T11:17:27;17.73;;;16.33;;
75971;SDS011;64651;47.540;19.088;2023-07-08T11:22:34;19.58;;;18.08;;
75971;SDS011;64651;47.540;19.088;2023-07-08T11:27:44;21.05;;;19.45;;
75971;SDS011;64651;47.540;19.088;2023-07-08T11:32:50;20.70;;;19.10;;
75971;SDS011;64651;47.540;19.088;2023-07-08T11:38:13;20.30;;;18.80;;
75971;SDS011;64651;47.540;19.088;2023-07-08T11:43:18;18.20;;;16.87;;
75971;SDS011;64651;47.540;19.088;2023-07-08T11:48:29;20.17;;;17.60;;
75971;SDS011;64651;47.540;19.088;2023-07-08T11:53:35;17.98;;;16.58;;
75971;SDS011;64651;47.540;19.088;2023-07-08T12:04:01;18.40;;;17.10;;
75971;SDS011;64651;47.540;19.088;2023-07-08T12:09:35;19.05;;;17.40;;
75971;SDS011;64651;47.540;19.088;2023-07-08T12:14:47;19.75;;;18.15;;
75971;SDS011;64651;47.540;19.088;2023-07-08T12:19:49;16.80;;;15.30;;
75971;SDS011;64651;47.540;19.088;2023-07-08T12:24:52;18.27;;;16.87;;
75971;SDS011;64651;47.540;19.088;2023-07-08T12:29:55;18.30;;;16.73;;
75971;SDS011;64651;47.540;19.088;2023-07-08T12:34:57;17.12;;;15.82;;
75971;SDS011;64651;47.540;19.088;2023-07-08T12:39:59;21.08;;;19.48;;
75971;SDS011;64651;47.540;19.088;2023-07-08T12:45:16;19.80;;;18.33;;
75971;SDS011;64651;47.540;19.088;2023-07-08T12:50:21;19.52;;;17.92;;
75971;SDS011;64651;47.540;19.088;2023-07-08T12:55:23;20.37;;;18.87;;
75971;SDS011;64651;47.540;19.088;2023-07-08T13:00:30;23.52;;;21.52;;
75971;SDS011;64651;47.540;19.088;2023-07-08T13:05:37;21.98;;;20.27;;
75971;SDS011;64651;47.540;19.088;2023-07-08T13:10:42;20.02;;;18.42;;
75971;SDS011;64651;47.540;19.088;2023-07-08T13:15:45;21.70;;;20.10;;
75971;SDS011;64651;47.540;19.088;2023-07-08T13:20:52;20.73;;;19.23;;
75971;SDS011;64651;47.540;19.088;2023-07-08T13:25:56;19.70;;;18.20;;
75971;SDS011;64651;47.540;19.088;2023-07-08T13:30:59;18.77;;;17.27;;
75971;SDS011;64651;47.540;19.088;2023-07-08T13:36:04;20.85;;;19.12;;
75971;SDS011;64651;47.540;19.088;2023-07-08T13:41:07;19.00;;;17.52;;
75971;SDS011;64651;47.540;19.088;2023-07-08T13:51:51;17.50;;;16.10;;
75971;SDS011;64651;47.540;19.088;2023-07-08T13:56:54;19.52;;;18.02;;
75971;SDS011;64651;47.540;19.088;2023-07-08T14:01:57;18.12;;;16.62;;
75971;SDS011;64651;47.540;19.088;2023-07-08T14:07:00;17.58;;;16.10;;
75971;SDS011;64651;47.540;19.088;2023-07-08T14:12:02;17.33;;;15.93;;
75971;SDS011;64651;47.540;19.088;2023-07-08T14:17:05;18.40;;;17.08;;
75971;SDS011;64651;47.540;19.088;2023-07-08T14:27:17;16.33;;;14.93;;
75971;SDS011;64651;47.540;19.088;2023-07-08T14:32:24;18.02;;;16.73;;
75971;SDS011;64651;47.540;19.088;2023-07-08T14:37:30;17.50;;;16.10;;
75971;SDS011;64651;47.540;19.088;2023-07-08T14:42:32;16.77;;;15.48;;
75971;SDS011;64651;47.540;19.088;2023-07-08T14:47:35;16.75;;;15.35;;
75971;SDS011;64651;47.540;19.088;2023-07-08T14:52:37;15.63;;;14.43;;
75971;SDS011;64651;47.540;19.088;2023-07-08T14:57:42;16.52;;;15.23;;
75971;SDS011;64651;47.540;19.088;2023-07-08T15:02:47;16.20;;;14.90;;
75971;SDS011;64651;47.540;19.088;2023-07-08T15:07:56;17.02;;;15.63;;
75971;SDS011;64651;47.540;19.088;2023-07-08T15:12:59;16.45;;;15.02;;
75971;SDS011;64651;47.540;19.088;2023-07-08T15:18:05;15.40;;;14.00;;
75971;SDS011;64651;47.540;19.088;2023-07-08T15:23:17;15.13;;;13.77;;
75971;SDS011;64651;47.540;19.088;2023-07-08T15:33:43;16.42;;;15.07;;
75971;SDS011;64651;47.540;19.088;2023-07-08T15:38:46;16.52;;;15.13;;
75971;SDS011;64651;47.540;19.088;2023-07-08T15:43:48;15.38;;;14.07;;
75971;SDS011;64651;47.540;19.088;2023-07-08T15:48:54;16.92;;;15.43;;
75971;SDS011;64651;47.540;19.088;2023-07-08T15:53:56;16.50;;;15.30;;
75971;SDS011;64651;47.540;19.088;2023-07-08T15:59:01;15.73;;;14.52;;
75971;SDS011;64651;47.540;19.088;2023-07-08T16:04:04;16.30;;;14.90;;
75971;SDS011;64651;47.540;19.088;2023-07-08T16:09:08;14.60;;;13.27;;
75971;SDS011;64651;47.540;19.088;2023-07-08T16:14:12;13.68;;;12.52;;
75971;SDS011;64651;47.540;19.088;2023-07-08T16:19:16;16.13;;;12.20;;
75971;SDS011;64651;47.540;19.088;2023-07-08T16:24:18;12.37;;;11.18;;
75971;SDS011;64651;47.540;19.088;2023-07-08T16:29:23;12.75;;;11.48;;
75971;SDS011;64651;47.540;19.088;2023-07-08T16:34:28;11.65;;;10.50;;
75971;SDS011;64651;47.540;19.088;2023-07-08T16:39:34;10.70;;;9.60;;
75971;SDS011;64651;47.540;19.088;2023-07-08T16:44:36;10.63;;;9.63;;
75971;SDS011;64651;47.540;19.088;2023-07-08T16:49:38;9.90;;;8.90;;
75971;SDS011;64651;47.540;19.088;2023-07-08T16:54:40;10.55;;;8.73;;
75971;SDS011;64651;47.540;19.088;2023-07-08T16:59:43;9.35;;;7.87;;
75971;SDS011;64651;47.540;19.088;2023-07-08T17:04:45;9.73;;;7.35;;
75971;SDS011;64651;47.540;19.088;2023-07-08T17:09:53;9.17;;;7.50;;
75971;SDS011;64651;47.540;19.088;2023-07-08T17:14:55;11.45;;;7.10;;
75971;SDS011;64651;47.540;19.088;2023-07-08T17:19:58;13.88;;;7.97;;
75971;SDS011;64651;47.540;19.088;2023-07-08T17:25:18;11.13;;;6.67;;
75971;SDS011;64651;47.540;19.088;2023-07-08T17:30:22;10.88;;;6.03;;
75971;SDS011;64651;47.540;19.088;2023-07-08T17:35:25;8.33;;;5.40;;
75971;SDS011;64651;47.540;19.088;2023-07-08T17:40:27;8.70;;;5.70;;
75971;SDS011;64651;47.540;19.088;2023-07-08T17:45:34;10.18;;;5.43;;
75971;SDS011;64651;47.540;19.088;2023-07-08T17:50:40;12.60;;;7.67;;
75971;SDS011;64651;47.540;19.088;2023-07-08T17:55:43;9.50;;;5.68;;
75971;SDS011;64651;47.540;19.088;2023-07-08T18:00:47;9.47;;;6.20;;
75971;SDS011;64651;47.540;19.088;2023-07-08T18:05:52;12.20;;;6.10;;
75971;SDS011;64651;47.540;19.088;2023-07-08T18:10:55;13.35;;;9.25;;
75971;SDS011;64651;47.540;19.088;2023-07-08T18:15:57;9.88;;;5.60;;
75971;SDS011;64651;47.540;19.088;2023-07-08T18:20:59;9.13;;;5.72;;
75971;SDS011;64651;47.540;19.088;2023-07-08T18:26:01;9.33;;;5.90;;
75971;SDS011;64651;47.540;19.088;2023-07-08T18:31:04;13.65;;;6.05;;
75971;SDS011;64651;47.540;19.088;2023-07-08T18:36:12;11.15;;;6.00;;
75971;SDS011;64651;47.540;19.088;2023-07-08T18:41:18;10.23;;;5.70;;
75971;SDS011;64651;47.540;19.088;2023-07-08T18:46:23;11.10;;;5.70;;
75971;SDS011;64651;47.540;19.088;2023-07-08T18:51:35;10.20;;;5.53;;
75971;SDS011;64651;47.540;19.088;2023-07-08T18:56:43;12.05;;;5.65;;
75971;SDS011;64651;47.540;19.088;2023-07-08T19:01:46;11.60;;;6.32;;
75971;SDS011;64651;47.540;19.088;2023-07-08T19:06:49;11.32;;;5.93;;
75971;SDS011;64651;47.540;19.088;2023-07-08T19:11:52;13.65;;;7.87;;
75971;SDS011;64651;47.540;19.088;2023-07-08T19:16:54;10.60;;;5.70;;
75971;SDS011;64651;47.540;19.088;2023-07-08T19:21:56;11.23;;;6.50;;
75971;SDS011;64651;47.540;19.088;2023-07-08T19:27:01;11.30;;;5.90;;
75971;SDS011;64651;47.540;19.088;2023-07-08T19:32:03;10.40;;;5.62;;
75971;SDS011;64651;47.540;19.088;2023-07-08T19:37:10;11.65;;;6.00;;
75971;SDS011;64651;47.540;19.088;2023-07-08T19:42:22;10.97;;;6.27;;
75971;SDS011;64651;47.540;19.088;2023-07-08T19:47:27;12.45;;;6.55;;
75971;SDS011;64651;47.540;19.088;2023-07-08T19:52:29;10.70;;;6.28;;
75971;SDS011;64651;47.540;19.088;2023-07-08T19:57:41;12.32;;;6.93;;
75971;SDS011;64651;47.540;19.088;2023-07-08T20:02:48;15.15;;;6.75;;
75971;SDS011;64651;47.540;19.088;2023-07-08T20:07:53;11.73;;;6.67;;
75971;SDS011;64651;47.540;19.088;2023-07-08T20:13:00;12.23;;;7.05;;
75971;SDS011;64651;47.540;19.088;2023-07-08T20:18:03;10.75;;;6.97;;
75971;SDS011;64651;47.540;19.088;2023-07-08T20:23:13;12.82;;;6.75;;
75971;SDS011;64651;47.540;19.088;2023-07-08T20:28:16;10.82;;;6.00;;
75971;SDS011;64651;47.540;19.088;2023-07-08T20:33:18;11.67;;;7.27;;
75971;SDS011;64651;47.540;19.088;2023-07-08T20:38:20;11.90;;;6.90;;
75971;SDS011;64651;47.540;19.088;2023-07-08T20:43:23;11.30;;;6.75;;
75971;SDS011;64651;47.540;19.088;2023-07-08T20:48:26;11.60;;;6.65;;
75971;SDS011;64651;47.540;19.088;2023-07-08T20:53:30;10.90;;;5.93;;
75971;SDS011;64651;47.540;19.088;2023-07-08T20:58:32;10.73;;;6.50;;
75971;SDS011;64651;47.540;19.088;2023-07-08T21:03:35;11.05;;;6.50;;
75971;SDS011;64651;47.540;19.088;2023-07-08T21:08:38;9.98;;;6.50;;
75971;SDS011;64651;47.540;19.088;2023-07-08T21:13:43;11.70;;;6.85;;
75971;SDS011;64651;47.540;19.088;2023-07-08T21:18:47;10.93;;;6.50;;
75971;SDS011;64651;47.540;19.088;2023-07-08T21:23:51;11.40;;;6.50;;
75971;SDS011;64651;47.540;19.088;2023-07-08T21:28:58;11.65;;;6.95;;
75971;SDS011;64651;47.540;19.088;2023-07-08T21:34:02;10.10;;;6.57;;
75971;SDS011;64651;47.540;19.088;2023-07-08T21:39:15;10.85;;;6.60;;
75971;SDS011;64651;47.540;19.088;2023-07-08T21:44:26;11.45;;;6.30;;
75971;SDS011;64651;47.540;19.088;2023-07-08T21:49:28;10.50;;;6.70;;
75971;SDS011;64651;47.540;19.088;2023-07-08T21:54:30;11.48;;;6.57;;
75971;SDS011;64651;47.540;19.088;2023-07-08T21:59:33;10.32;;;6.80;;
75971;SDS011;64651;47.540;19.088;2023-07-08T22:04:35;11.82;;;6.97;;
75971;SDS011;64651;47.540;19.088;2023-07-08T22:09:38;11.50;;;6.68;;
75971;SDS011;64651;47.540;19.088;2023-07-08T22:14:40;12.13;;;7.30;;
75971;SDS011;64651;47.540;19.088;2023-07-08T22:19:43;10.65;;;7.28;;
75971;SDS011;64651;47.540;19.088;2023-07-08T22:24:45;12.10;;;8.07;;
75971;SDS011;64651;47.540;19.088;2023-07-08T22:29:48;10.60;;;6.97;;
75971;SDS011;64651;47.540;19.088;2023-07-08T22:34:50;10.85;;;6.93;;
75971;SDS011;64651;47.540;19.088;2023-07-08T22:39:52;11.50;;;7.60;;
75971;SDS011;64651;47.540;19.088;2023-07-08T22:44:54;13.73;;;7.62;;
75971;SDS011;64651;47.540;19.088;2023-07-08T22:49:59;12.52;;;7.55;;
75971;SDS011;64651;47.540;19.088;2023-07-08T22:55:08;12.10;;;7.37;;
75971;SDS011;64651;47.540;19.088;2023-07-08T23:00:18;11.43;;;7.93;;
75971;SDS011;64651;47.540;19.088;2023-07-08T23:05:26;16.47;;;7.90;;
75971;SDS011;64651;47.540;19.088;2023-07-08T23:10:30;12.52;;;7.53;;
75971;SDS011;64651;47.540;19.088;2023-07-08T23:15:32;12.35;;;7.25;;
75971;SDS011;64651;47.540;19.088;2023-07-08T23:20:35;11.30;;;7.53;;
75971;SDS011;64651;47.540;19.088;2023-07-08T23:25:37;11.98;;;8.30;;
75971;SDS011;64651;47.540;19.088;2023-07-08T23:30:40;11.60;;;7.33;;
75971;SDS011;64651;47.540;19.088;2023-07-08T23:35:45;14.15;;;7.70;;
75971;SDS011;64651;47.540;19.088;2023-07-08T23:40:48;11.98;;;7.70;;
75971;SDS011;64651;47.540;19.088;2023-07-08T23:45:51;12.25;;;7.43;;
75971;SDS011;64651;47.540;19.088;2023-07-08T23:50:53;12.25;;;7.40;;
75971;SDS011;64651;47.540;19.088;2023-07-08T23:55:55;12.80;;;7.97;;
